createdAt,value
2023-04-12T00:00:26.402Z,0.73
2023-04-12T00:02:54.513Z,1.00
2023-04-12T00:05:27.443Z,0.70
2023-04-12T00:07:55.002Z,1.02
2023-04-12T00:10:22.241Z,0.50
2023-04-12T00:12:49.628Z,0.70
2023-04-12T00:15:16.615Z,1.23
2023-04-12T00:17:47.198Z,1.00
2023-04-12T00:20:16.574Z,0.93
2023-04-12T00:22:46.067Z,0.60
2023-04-12T00:25:13.136Z,0.68
2023-04-12T00:27:40.006Z,1.08
2023-04-12T00:30:09.393Z,0.47
2023-04-12T00:32:36.508Z,1.02
2023-04-12T00:35:03.425Z,1.23
2023-04-12T00:37:30.398Z,0.75
2023-04-12T00:39:58.498Z,1.30
2023-04-12T00:42:25.226Z,1.20
2023-04-12T00:44:51.967Z,1.00
2023-04-12T00:47:18.716Z,1.20
2023-04-12T00:49:45.444Z,0.90
2023-04-12T00:52:14.680Z,0.50
2023-04-12T00:54:42.392Z,0.77
2023-04-12T00:57:10.891Z,0.70
2023-04-12T00:59:37.775Z,0.40
2023-04-12T01:02:04.883Z,0.90
2023-04-12T01:04:34.517Z,0.35
2023-04-12T01:07:15.359Z,0.95
2023-04-12T01:09:53.132Z,0.50
2023-04-12T01:12:31.452Z,0.60
2023-04-12T01:15:06.647Z,0.60
2023-04-12T01:17:52.853Z,0.70
2023-04-12T01:20:23.497Z,1.00
2023-04-12T01:23:14.805Z,0.52
2023-04-12T01:25:59.021Z,0.90
2023-04-12T01:28:38.373Z,1.00
2023-04-12T01:31:08.938Z,1.33
2023-04-12T01:33:39.736Z,1.10
2023-04-12T01:36:12.329Z,0.68
2023-04-12T01:38:40.537Z,0.68
2023-04-12T01:41:08.452Z,0.80
2023-04-12T01:43:42.899Z,0.30
2023-04-12T01:46:11.867Z,0.45
2023-04-12T01:48:39.416Z,0.43
2023-04-12T01:51:12.581Z,0.73
2023-04-12T01:53:50.894Z,0.70
2023-04-12T01:56:21.338Z,1.00
2023-04-12T01:58:52.406Z,0.70
2023-04-12T02:01:19.677Z,0.60
2023-04-12T02:03:49.804Z,0.80
2023-04-12T02:06:22.742Z,0.88
2023-04-12T02:08:49.952Z,0.90
2023-04-12T02:11:16.683Z,1.08
2023-04-12T02:13:44.566Z,0.98
2023-04-12T02:16:14.157Z,0.73
2023-04-12T02:18:42.490Z,0.60
2023-04-12T02:21:09.457Z,0.80
2023-04-12T02:23:36.226Z,0.85
2023-04-12T02:26:04.310Z,0.57
2023-04-12T02:28:31.144Z,0.90
2023-04-12T02:30:58.247Z,1.10
2023-04-12T02:33:28.243Z,1.02
2023-04-12T02:35:57.277Z,0.40
2023-04-12T02:38:25.176Z,0.60
2023-04-12T02:40:51.876Z,0.90
2023-04-12T02:43:18.614Z,0.70
2023-04-12T02:45:47.169Z,0.80
2023-04-12T02:48:13.955Z,0.40
2023-04-12T02:50:42.400Z,0.85
2023-04-12T02:53:10.584Z,0.60
2023-04-12T02:55:39.135Z,0.60
2023-04-12T02:58:06.130Z,0.80
2023-04-12T03:00:33.215Z,0.77
2023-04-12T03:03:03.791Z,0.50
2023-04-12T03:05:30.765Z,0.70
2023-04-12T03:07:58.920Z,1.05
2023-04-12T03:10:25.866Z,0.70
2023-04-12T03:12:52.590Z,0.60
2023-04-12T03:15:19.815Z,0.68
2023-04-12T03:17:46.688Z,0.68
2023-04-12T03:20:14.585Z,0.70
2023-04-12T03:22:41.941Z,0.70
2023-04-12T03:25:12.661Z,0.50
2023-04-12T03:27:39.428Z,0.63
2023-04-12T03:30:07.677Z,0.30
2023-04-12T03:32:34.598Z,0.57
2023-04-12T03:35:01.458Z,0.70
2023-04-12T03:37:28.359Z,0.80
2023-04-12T03:39:58.339Z,0.75
2023-04-12T03:42:33.483Z,1.00
2023-04-12T03:45:00.748Z,0.90
2023-04-12T03:47:28.285Z,0.70
2023-04-12T03:50:10.216Z,0.60
2023-04-12T03:52:38.784Z,0.30
2023-04-12T03:55:07.885Z,0.45
2023-04-12T03:57:36.578Z,0.43
2023-04-12T04:00:05.329Z,1.10
2023-04-12T04:02:32.347Z,0.50
2023-04-12T04:04:59.437Z,0.68
2023-04-12T04:07:26.473Z,0.50
2023-04-12T04:09:54.765Z,0.90
2023-04-12T04:12:21.619Z,0.40
2023-04-12T04:14:49.864Z,0.73
2023-04-12T04:17:16.681Z,1.10
2023-04-12T04:19:43.387Z,0.68
2023-04-12T04:22:10.198Z,1.00
2023-04-12T04:24:39.217Z,0.70
2023-04-12T04:27:06.682Z,0.57
2023-04-12T04:29:33.968Z,0.47
2023-04-12T04:32:02.443Z,0.32
2023-04-12T04:34:29.427Z,0.50
2023-04-12T04:36:57.570Z,0.50
2023-04-12T04:39:25.694Z,0.43
2023-04-12T04:42:01.414Z,0.40
2023-04-12T04:44:28.084Z,0.95
2023-04-12T04:46:54.872Z,0.70
2023-04-12T04:49:22.921Z,0.70
2023-04-12T04:51:50.457Z,0.50
2023-04-12T04:54:18.842Z,0.85
2023-04-12T04:56:45.543Z,0.50
2023-04-12T04:59:12.473Z,0.50
2023-04-12T05:01:39.342Z,1.15
2023-04-12T05:04:06.435Z,0.80
2023-04-12T05:06:36.325Z,0.30
2023-04-12T05:09:04.079Z,0.88
2023-04-12T05:11:33.879Z,1.13
2023-04-12T05:14:00.682Z,0.82
2023-04-12T05:16:27.752Z,0.40
2023-04-12T05:18:54.984Z,0.35
2023-04-12T05:21:26.406Z,0.70
2023-04-12T05:23:54.502Z,0.93
2023-04-12T05:26:22.380Z,1.00
2023-04-12T05:28:49.477Z,0.95
2023-04-12T05:31:16.277Z,0.40
2023-04-12T05:33:43.066Z,0.52
2023-04-12T05:36:10.762Z,0.50
2023-04-12T05:38:37.573Z,0.80
2023-04-12T05:41:06.474Z,0.68
2023-04-12T05:43:33.279Z,0.82
2023-04-12T05:46:03.404Z,0.45
2023-04-12T05:48:30.878Z,0.50
2023-04-12T05:50:57.650Z,0.90
2023-04-12T05:53:24.495Z,0.55
2023-04-12T05:55:51.831Z,0.63
2023-04-12T05:58:20.030Z,0.52
2023-04-12T06:00:46.997Z,0.50
2023-04-12T06:03:13.839Z,0.40
2023-04-12T06:05:40.791Z,0.70
2023-04-12T06:08:08.500Z,1.27
2023-04-12T06:10:35.578Z,0.38
2023-04-12T06:13:02.392Z,0.70
2023-04-12T06:15:34.342Z,0.30
2023-04-12T06:18:01.725Z,0.40
2023-04-12T06:20:28.700Z,0.50
2023-04-12T06:22:55.394Z,0.45
2023-04-12T06:25:23.266Z,0.75
2023-04-12T06:27:52.524Z,0.47
2023-04-12T06:30:20.051Z,0.50
2023-04-12T06:32:48.757Z,0.90
2023-04-12T06:35:16.989Z,0.40
2023-04-12T06:37:43.993Z,0.90
2023-04-12T06:40:16.740Z,0.32
2023-04-12T06:42:43.709Z,0.98
2023-04-12T06:45:11.534Z,0.60
2023-04-12T06:47:41.048Z,0.80
2023-04-12T06:50:13.574Z,0.38
2023-04-12T06:52:41.174Z,0.60
2023-04-12T06:55:09.608Z,0.40
2023-04-12T06:57:38.948Z,0.20
2023-04-12T07:00:09.519Z,0.40
2023-04-12T07:02:39.908Z,0.30
2023-04-12T07:05:11.068Z,0.40
2023-04-12T07:07:37.991Z,0.50
2023-04-12T07:10:06.637Z,0.70
2023-04-12T07:12:34.457Z,0.30
2023-04-12T07:15:01.282Z,0.30
2023-04-12T07:17:28.146Z,0.50
2023-04-12T07:19:55.498Z,0.80
2023-04-12T07:22:24.003Z,0.57
2023-04-12T07:24:53.076Z,0.40
2023-04-12T07:27:23.211Z,0.75
2023-04-12T07:29:51.943Z,0.85
2023-04-12T07:32:19.018Z,0.80
2023-04-12T07:34:46.050Z,0.60
2023-04-12T07:37:13.392Z,0.90
2023-04-12T07:39:43.440Z,1.08
2023-04-12T07:42:10.272Z,1.20
2023-04-12T07:44:38.871Z,0.80
2023-04-12T07:47:07.165Z,0.50
2023-04-12T07:49:34.086Z,1.08
2023-04-12T07:52:07.785Z,0.60
2023-04-12T07:54:37.233Z,0.88
2023-04-12T07:57:05.832Z,1.05
2023-04-12T07:59:38.996Z,1.10
2023-04-12T08:02:06.722Z,0.90
2023-04-12T08:04:35.492Z,0.70
2023-04-12T08:07:05.514Z,0.70
2023-04-12T08:09:32.604Z,0.90
2023-04-12T08:12:00.948Z,1.60
2023-04-12T08:14:29.372Z,0.90
2023-04-12T08:16:56.308Z,1.08
2023-04-12T08:19:27.708Z,0.90
2023-04-12T08:21:54.884Z,0.63
2023-04-12T08:24:24.801Z,0.90
2023-04-12T08:26:54.774Z,1.90
2023-04-12T08:29:21.699Z,1.10
2023-04-12T08:31:50.254Z,0.80
2023-04-12T08:34:17.463Z,0.80
2023-04-12T08:36:44.167Z,0.85
2023-04-12T08:39:12.520Z,1.13
2023-04-12T08:41:41.541Z,1.23
2023-04-12T08:44:11.157Z,1.33
2023-04-12T08:46:38.042Z,1.23
2023-04-12T08:49:07.326Z,1.25
2023-04-12T08:51:34.740Z,1.30
2023-04-12T08:54:01.763Z,0.70
2023-04-12T08:56:30.523Z,1.10
2023-04-12T08:59:01.174Z,0.75
2023-04-12T09:01:31.120Z,1.10
2023-04-12T09:03:58.786Z,0.70
2023-04-12T09:06:27.739Z,0.70
2023-04-12T09:09:00.286Z,1.02
2023-04-12T09:11:28.332Z,0.63
2023-04-12T09:13:59.196Z,0.82
2023-04-12T09:16:37.313Z,0.77
2023-04-12T09:19:04.631Z,0.70
2023-04-12T09:21:35.131Z,1.05
2023-04-12T09:24:03.942Z,0.90
2023-04-12T09:26:31.834Z,1.10
2023-04-12T09:28:58.729Z,1.10
2023-04-12T09:31:26.873Z,1.30
2023-04-12T09:34:07.694Z,0.90
2023-04-12T09:36:40.784Z,0.98
2023-04-12T09:39:08.236Z,0.73
2023-04-12T09:41:35.220Z,1.00
2023-04-12T09:44:02.722Z,1.58
2023-04-12T09:46:30.108Z,1.30
2023-04-12T09:49:03.298Z,1.23
2023-04-12T09:51:34.293Z,0.63
2023-04-12T09:54:04.046Z,0.75
2023-04-12T09:56:34.849Z,0.90
2023-04-12T09:59:03.356Z,1.40
2023-04-12T10:01:35.969Z,0.80
2023-04-12T10:04:05.778Z,1.13
2023-04-12T10:06:33.764Z,1.30
2023-04-12T10:09:04.420Z,1.50
2023-04-12T10:11:34.130Z,1.40
2023-04-12T10:14:04.095Z,1.80
2023-04-12T10:16:31.433Z,1.05
2023-04-12T10:19:02.606Z,1.33
2023-04-12T10:21:33.729Z,1.92
2023-04-12T10:24:07.178Z,1.58
2023-04-12T10:26:34.618Z,1.60
2023-04-12T10:29:25.466Z,1.48
2023-04-12T10:31:52.843Z,1.33
2023-04-12T10:34:24.839Z,1.60
2023-04-12T10:36:53.219Z,1.83
2023-04-12T10:39:38.908Z,1.58
2023-04-12T10:42:23.901Z,1.52
2023-04-12T10:44:52.355Z,1.58
2023-04-12T10:47:59.005Z,1.35
2023-04-12T10:50:27.386Z,1.70
2023-04-12T10:53:23.241Z,1.20
2023-04-12T10:55:52.420Z,1.10
2023-04-12T10:59:00.744Z,1.27
2023-04-12T11:01:29.175Z,1.10
2023-04-12T11:04:14.513Z,2.33
2023-04-12T11:07:07.532Z,1.65
2023-04-12T11:09:43.392Z,1.67
2023-04-12T11:12:17.527Z,1.50
2023-04-12T11:14:47.417Z,1.30
2023-04-12T11:17:26.281Z,1.52
2023-04-12T11:20:00.066Z,1.77
2023-04-12T11:22:30.104Z,1.95
2023-04-12T11:24:59.368Z,1.48
2023-04-12T11:27:29.653Z,1.33
2023-04-12T11:30:00.658Z,0.82
2023-04-12T11:32:32.043Z,1.38
2023-04-12T11:35:00.652Z,1.40
2023-04-12T11:37:32.316Z,1.58
2023-04-12T11:42:29.793Z,1.70
2023-04-12T11:45:01.090Z,1.58
2023-04-12T11:47:34.563Z,1.20
2023-04-12T11:50:01.835Z,1.67
2023-04-12T11:52:34.046Z,1.80
2023-04-12T11:55:05.850Z,1.50
2023-04-12T11:57:36.684Z,1.25
2023-04-12T12:00:09.042Z,1.10
2023-04-12T12:02:46.506Z,1.45
2023-04-12T12:05:29.198Z,1.60
2023-04-12T12:08:05.911Z,1.50
2023-04-12T12:13:14.444Z,1.05
2023-04-12T12:15:47.661Z,1.10
2023-04-12T12:18:15.299Z,1.40
2023-04-12T12:20:42.944Z,1.50
2023-04-12T12:23:10.296Z,1.27
2023-04-12T12:25:40.324Z,1.20
2023-04-12T12:28:18.279Z,1.33
2023-04-12T12:30:45.131Z,0.63
2023-04-12T12:33:13.994Z,1.15
2023-04-12T12:35:41.074Z,0.95
2023-04-12T12:38:08.639Z,1.00
2023-04-12T12:40:36.280Z,1.45
2023-04-12T12:43:03.480Z,0.93
2023-04-12T12:45:34.215Z,1.17
2023-04-12T12:48:02.880Z,1.38
2023-04-12T12:50:35.506Z,1.42
2023-04-12T12:53:03.633Z,0.50
2023-04-12T12:55:31.663Z,0.98
2023-04-12T12:58:07.913Z,0.45
2023-04-12T13:00:36.732Z,1.02
2023-04-12T13:03:04.597Z,0.90
2023-04-12T13:05:34.039Z,0.93
2023-04-12T13:08:02.377Z,0.65
2023-04-12T13:10:29.232Z,0.50
2023-04-12T13:12:56.370Z,0.55
2023-04-12T13:15:25.004Z,0.70
2023-04-12T13:17:54.062Z,0.40
2023-04-12T13:20:22.248Z,0.30
2023-04-12T13:22:50.265Z,0.75
2023-04-12T13:25:17.620Z,0.77
2023-04-12T13:27:47.312Z,0.50
2023-04-12T13:30:16.601Z,1.02
2023-04-12T13:32:44.840Z,0.63
2023-04-12T13:35:16.585Z,0.85
2023-04-12T13:37:44.229Z,0.70
2023-04-12T13:40:11.848Z,0.73
2023-04-12T13:42:42.828Z,0.77
2023-04-12T13:45:11.578Z,0.50
2023-04-12T13:47:39.291Z,0.47
2023-04-12T13:50:07.963Z,0.60
2023-04-12T13:52:36.046Z,0.68
2023-04-12T13:55:04.841Z,0.60
2023-04-12T13:57:31.853Z,0.88
2023-04-12T13:59:58.611Z,0.40
2023-04-12T14:02:26.722Z,0.70
2023-04-12T14:04:56.993Z,0.63
2023-04-12T14:07:24.486Z,0.30
2023-04-12T14:09:56.149Z,1.00
2023-04-12T14:12:22.856Z,0.35
2023-04-12T14:14:49.621Z,0.57
2023-04-12T14:17:18.065Z,0.38
2023-04-12T14:19:46.885Z,0.80
2023-04-12T14:22:14.050Z,0.40
2023-04-12T14:24:43.506Z,0.75
2023-04-12T14:27:12.908Z,0.40
2023-04-12T14:29:45.647Z,0.38
2023-04-12T14:32:13.008Z,0.88
2023-04-12T14:34:39.786Z,0.80
2023-04-12T14:37:06.675Z,0.57
2023-04-12T14:39:36.346Z,0.88
2023-04-12T14:42:24.458Z,0.50
2023-04-12T14:44:53.735Z,0.40
2023-04-12T14:47:20.907Z,0.32
2023-04-12T14:49:47.682Z,0.45
2023-04-12T14:52:14.591Z,0.70
2023-04-12T14:54:42.970Z,0.75
2023-04-12T14:57:11.261Z,0.20
2023-04-12T14:59:45.767Z,0.60
2023-04-12T15:02:14.201Z,0.45
2023-04-12T15:04:41.430Z,0.80
2023-04-12T15:07:13.149Z,0.47
2023-04-12T15:09:46.059Z,0.88
2023-04-12T15:12:13.938Z,0.50
2023-04-12T15:14:42.461Z,0.45
2023-04-12T15:17:14.332Z,0.30
2023-04-12T15:19:44.599Z,0.80
2023-04-12T15:22:14.270Z,0.38
2023-04-12T15:24:45.734Z,0.20
2023-04-12T15:27:12.876Z,0.43
2023-04-12T15:29:40.121Z,0.40
2023-04-12T15:32:11.418Z,0.38
2023-04-12T15:34:39.449Z,0.38
2023-04-12T15:37:07.879Z,0.30
2023-04-12T15:39:36.569Z,0.30
2023-04-12T15:42:05.415Z,0.40
2023-04-12T15:44:32.425Z,0.30
2023-04-12T15:47:10.461Z,0.57
2023-04-12T15:49:38.427Z,0.20
2023-04-12T15:52:05.481Z,0.60
2023-04-12T15:54:35.295Z,0.20
2023-04-12T15:57:11.708Z,0.10
2023-04-12T15:59:40.245Z,0.60
2023-04-12T16:02:09.776Z,0.20
2023-04-12T16:04:37.406Z,0.10
2023-04-12T16:07:04.690Z,0.20
2023-04-12T16:09:35.007Z,0.40
2023-04-12T16:12:02.320Z,0.10
2023-04-12T16:14:29.369Z,0.55
2023-04-12T16:16:58.598Z,0.20
2023-04-12T16:19:27.605Z,0.70
2023-04-12T16:21:54.806Z,0.75
2023-04-12T16:24:21.745Z,0.70
2023-04-12T16:26:50.577Z,0.17
2023-04-12T16:29:17.796Z,0.10
2023-04-12T16:31:51.910Z,0.30
2023-04-12T16:34:21.998Z,0.50
2023-04-12T16:36:49.853Z,0.50
2023-04-12T16:39:16.779Z,0.13
2023-04-12T16:41:46.866Z,0.40
2023-04-12T16:44:19.380Z,0.40
2023-04-12T16:46:48.949Z,0.45
2023-04-12T16:49:20.168Z,0.20
2023-04-12T16:51:47.097Z,0.60
2023-04-12T16:54:15.761Z,0.50
2023-04-12T16:56:43.014Z,0.60
2023-04-12T16:59:10.864Z,0.20
2023-04-12T17:01:39.578Z,0.32
2023-04-12T17:04:12.624Z,0.13
2023-04-12T17:06:41.059Z,0.30
2023-04-12T17:09:10.121Z,0.10
2023-04-12T17:11:37.057Z,0.50
2023-04-12T17:14:04.192Z,0.50
2023-04-12T17:16:31.974Z,0.43
2023-04-12T17:19:00.433Z,0.30
2023-04-12T17:21:27.852Z,0.30
2023-04-12T17:23:58.788Z,0.30
2023-04-12T17:26:27.452Z,0.50
2023-04-12T17:28:54.783Z,0.22
2023-04-12T17:31:22.656Z,0.28
2023-04-12T17:33:51.150Z,0.50
2023-04-12T17:36:23.082Z,0.45
2023-04-12T17:38:49.996Z,0.40
2023-04-12T17:41:17.003Z,0.15
2023-04-12T17:43:47.514Z,0.15
2023-04-12T17:46:26.342Z,0.63
2023-04-12T17:48:53.655Z,0.45
2023-04-12T17:51:22.305Z,0.20
2023-04-12T17:53:50.400Z,0.40
2023-04-12T17:56:19.691Z,2.05
2023-04-12T17:58:49.351Z,1.88
2023-04-12T18:01:17.289Z,2.22
2023-04-12T18:03:45.401Z,2.38
2023-04-12T18:06:15.388Z,3.72
2023-04-12T18:08:48.144Z,2.75
2023-04-12T18:11:15.203Z,1.80
2023-04-12T18:13:45.264Z,1.30
2023-04-12T18:16:12.317Z,1.40
2023-04-12T18:18:41.956Z,1.13
2023-04-12T18:21:12.651Z,1.75
2023-04-12T18:23:40.035Z,1.35
2023-04-12T18:26:08.552Z,0.98
2023-04-12T18:28:35.672Z,0.75
2023-04-12T18:31:02.907Z,0.93
2023-04-12T18:33:38.724Z,1.35
2023-04-12T18:36:06.179Z,0.85
2023-04-12T18:38:36.358Z,1.17
2023-04-12T18:41:06.161Z,1.15
2023-04-12T18:43:34.734Z,1.27
2023-04-12T18:46:08.292Z,1.13
2023-04-12T18:48:36.157Z,1.35
2023-04-12T18:51:03.529Z,0.70
2023-04-12T18:53:31.831Z,0.80
2023-04-12T18:56:08.156Z,0.70
2023-04-12T18:58:54.469Z,1.00
2023-04-12T19:01:22.296Z,1.02
2023-04-12T19:03:51.847Z,0.80
2023-04-12T19:06:18.792Z,0.70
2023-04-12T19:08:46.180Z,1.48
2023-04-12T19:11:13.796Z,1.20
2023-04-12T19:13:48.056Z,1.00
2023-04-12T19:16:16.529Z,1.40
2023-04-12T19:18:45.196Z,0.88
2023-04-12T19:21:12.212Z,0.70
2023-04-12T19:23:39.124Z,0.57
2023-04-12T19:26:06.215Z,1.20
2023-04-12T19:28:33.115Z,0.98
2023-04-12T19:31:04.376Z,0.73
2023-04-12T19:33:31.188Z,1.23
2023-04-12T19:36:02.430Z,1.10
2023-04-12T19:38:29.577Z,0.65
2023-04-12T19:40:58.295Z,1.13
2023-04-12T19:43:26.735Z,1.50
2023-04-12T19:45:53.733Z,0.70
2023-04-12T19:48:22.127Z,0.57
2023-04-12T19:50:49.086Z,1.48
2023-04-12T19:53:21.587Z,1.33
2023-04-12T19:55:48.323Z,0.90
2023-04-12T19:58:15.591Z,1.05
2023-04-12T20:00:42.521Z,1.50
2023-04-12T20:03:09.610Z,1.70
2023-04-12T20:05:38.694Z,1.10
2023-04-12T20:08:05.661Z,1.33
2023-04-12T20:10:32.906Z,0.70
2023-04-12T20:12:59.933Z,1.27
2023-04-12T20:15:26.965Z,1.38
2023-04-12T20:17:54.043Z,1.20
2023-04-12T20:20:24.761Z,0.80
2023-04-12T20:22:53.287Z,0.60
2023-04-12T20:25:20.897Z,1.27
2023-04-12T20:27:52.739Z,1.20
2023-04-12T20:32:54.401Z,0.80
2023-04-12T20:35:22.007Z,0.90
2023-04-12T20:37:51.175Z,0.85
2023-04-12T20:40:23.402Z,0.80
2023-04-12T20:42:50.577Z,0.90
2023-04-12T20:45:19.766Z,1.00
2023-04-12T20:47:46.740Z,0.70
2023-04-12T20:50:13.771Z,0.70
2023-04-12T20:52:42.105Z,1.25
2023-04-12T20:55:11.310Z,0.57
2023-04-12T20:57:44.606Z,0.60
2023-04-12T21:00:17.352Z,0.75
2023-04-12T21:02:46.804Z,0.73
2023-04-12T21:05:17.066Z,0.93
2023-04-12T21:07:46.770Z,0.50
2023-04-12T21:10:19.692Z,0.70
2023-04-12T21:12:48.507Z,0.90
2023-04-12T21:15:18.359Z,1.30
2023-04-12T21:17:46.708Z,0.70
2023-04-12T21:20:16.290Z,0.82
2023-04-12T21:22:45.196Z,1.00
2023-04-12T21:25:16.793Z,1.08
2023-04-12T21:27:47.289Z,1.17
2023-04-12T21:30:15.822Z,1.02
2023-04-12T21:32:44.293Z,1.05
2023-04-12T21:35:11.760Z,0.70
2023-04-12T21:37:39.406Z,0.60
2023-04-12T21:40:12.837Z,1.25
2023-04-12T21:42:41.639Z,1.00
2023-04-12T21:45:13.739Z,1.00
2023-04-12T21:47:43.533Z,0.90
2023-04-12T21:50:11.727Z,0.93
2023-04-12T21:52:40.136Z,0.80
2023-04-12T21:55:07.998Z,0.50
2023-04-12T21:57:35.447Z,1.08
2023-04-12T22:00:02.906Z,1.17
2023-04-12T22:02:29.910Z,0.70
2023-04-12T22:04:58.512Z,1.17
2023-04-12T22:07:25.513Z,1.10
2023-04-12T22:09:53.782Z,0.63
2023-04-12T22:12:21.952Z,1.10
2023-04-12T22:14:49.919Z,0.90
2023-04-12T22:17:19.054Z,1.00
2023-04-12T22:19:46.324Z,0.90
2023-04-12T22:22:16.238Z,0.80
2023-04-12T22:24:44.212Z,0.90
2023-04-12T22:27:16.584Z,0.35
2023-04-12T22:29:43.760Z,0.95
2023-04-12T22:32:10.977Z,0.60
2023-04-12T22:34:40.181Z,0.82
2023-04-12T22:37:12.022Z,0.30
2023-04-12T22:42:09.729Z,0.32
2023-04-12T22:44:39.637Z,0.68
2023-04-12T22:47:09.965Z,0.50
2023-04-12T22:49:45.832Z,0.70
2023-04-12T22:52:13.657Z,0.63
2023-04-12T22:54:41.979Z,0.52
2023-04-12T22:57:10.089Z,0.82
2023-04-12T22:59:37.925Z,0.90
2023-04-12T23:02:05.729Z,0.52
2023-04-12T23:04:32.675Z,0.63
2023-04-12T23:07:01.407Z,0.65
2023-04-12T23:09:28.855Z,0.70
2023-04-12T23:11:57.968Z,0.63
2023-04-12T23:14:25.088Z,0.70
2023-04-12T23:16:52.296Z,0.88
2023-04-12T23:19:19.131Z,0.32
2023-04-12T23:21:46.097Z,0.38
2023-04-12T23:24:15.683Z,0.40
2023-04-12T23:26:42.609Z,0.90
2023-04-12T23:29:11.580Z,0.68
2023-04-12T23:31:38.788Z,0.80
2023-04-12T23:34:06.443Z,0.70
2023-04-12T23:36:34.185Z,0.35
2023-04-12T23:39:01.560Z,0.52
2023-04-12T23:41:32.919Z,0.65
2023-04-12T23:44:00.723Z,0.28
2023-04-12T23:46:29.288Z,0.32
2023-04-12T23:48:56.265Z,0.57
2023-04-12T23:51:23.874Z,0.43
2023-04-12T23:53:50.864Z,0.65
2023-04-12T23:56:17.798Z,0.60
2023-04-12T23:58:44.737Z,0.30
